sensor_id;sensor_type;location;lat;lon;timestamp;P1;durP1;ratioP1;P2;durP2;ratioP2
70410;SDS011;57832;46.038;11.398;2023-04-06T00:01:29;0.00;;;0.00;;
70410;SDS011;57832;46.038;11.398;2023-04-06T00:03:55;0.00;;;0.00;;
70410;SDS011;57832;46.038;11.398;2023-04-06T00:06:20;0.10;;;0.10;;
70410;SDS011;57832;46.038;11.398;2023-04-06T00:08:46;0.00;;;0.00;;
70410;SDS011;57832;46.038;11.398;2023-04-06T00:11:12;0.00;;;0.00;;
70410;SDS011;57832;46.038;11.398;2023-04-06T00:13:38;0.00;;;0.00;;
70410;SDS011;57832;46.038;11.398;2023-04-06T00:16:03;0.00;;;0.00;;
70410;SDS011;57832;46.038;11.398;2023-04-06T00:20:56;0.00;;;0.00;;
70410;SDS011;57832;46.038;11.398;2023-04-06T05:40:49;0.00;;;0.00;;
70410;SDS011;57832;46.038;11.398;2023-04-06T05:43:14;0.00;;;0.00;;
70410;SDS011;57832;46.038;11.398;2023-04-06T05:45:40;0.00;;;0.00;;
70410;SDS011;57832;46.038;11.398;2023-04-06T05:48:05;0.00;;;0.00;;
70410;SDS011;57832;46.038;11.398;2023-04-06T05:50:31;0.00;;;0.00;;
70410;SDS011;57832;46.038;11.398;2023-04-06T05:52:57;0.00;;;0.00;;
70410;SDS011;57832;46.038;11.398;2023-04-06T05:55:22;0.00;;;0.00;;
70410;SDS011;57832;46.038;11.398;2023-04-06T05:57:48;0.00;;;0.00;;
70410;SDS011;57832;46.038;11.398;2023-04-06T06:00:13;0.00;;;0.00;;
70410;SDS011;57832;46.038;11.398;2023-04-06T06:02:39;0.00;;;0.00;;
70410;SDS011;57832;46.038;11.398;2023-04-06T06:05:07;0.10;;;0.10;;
70410;SDS011;57832;46.038;11.398;2023-04-06T06:07:33;0.00;;;0.00;;
70410;SDS011;57832;46.038;11.398;2023-04-06T06:09:59;0.03;;;0.03;;
70410;SDS011;57832;46.038;11.398;2023-04-06T06:12:24;0.10;;;0.10;;
70410;SDS011;57832;46.038;11.398;2023-04-06T06:14:50;0.00;;;0.00;;
70410;SDS011;57832;46.038;11.398;2023-04-06T06:17:15;0.00;;;0.00;;
70410;SDS011;57832;46.038;11.398;2023-04-06T06:19:41;0.00;;;0.00;;
70410;SDS011;57832;46.038;11.398;2023-04-06T06:22:07;0.00;;;0.00;;
70410;SDS011;57832;46.038;11.398;2023-04-06T06:24:32;0.00;;;0.00;;
70410;SDS011;57832;46.038;11.398;2023-04-06T06:26:58;0.00;;;0.00;;
70410;SDS011;57832;46.038;11.398;2023-04-06T06:29:23;0.00;;;0.00;;
70410;SDS011;57832;46.038;11.398;2023-04-06T06:31:49;0.00;;;0.00;;
70410;SDS011;57832;46.038;11.398;2023-04-06T06:34:15;0.00;;;0.00;;
70410;SDS011;57832;46.038;11.398;2023-04-06T06:36:40;0.00;;;0.00;;
70410;SDS011;57832;46.038;11.398;2023-04-06T06:39:06;0.00;;;0.00;;
70410;SDS011;57832;46.038;11.398;2023-04-06T06:41:31;0.00;;;0.00;;
70410;SDS011;57832;46.038;11.398;2023-04-06T06:43:57;0.00;;;0.00;;
70410;SDS011;57832;46.038;11.398;2023-04-06T06:46:23;0.00;;;0.00;;
70410;SDS011;57832;46.038;11.398;2023-04-06T06:48:48;0.00;;;0.00;;
70410;SDS011;57832;46.038;11.398;2023-04-06T06:51:14;0.00;;;0.00;;
70410;SDS011;57832;46.038;11.398;2023-04-06T06:53:40;0.00;;;0.00;;
70410;SDS011;57832;46.038;11.398;2023-04-06T06:56:06;0.00;;;0.00;;
70410;SDS011;57832;46.038;11.398;2023-04-06T06:58:32;0.00;;;0.00;;
70410;SDS011;57832;46.038;11.398;2023-04-06T07:00:58;0.00;;;0.00;;
70410;SDS011;57832;46.038;11.398;2023-04-06T07:03:24;0.00;;;0.00;;
70410;SDS011;57832;46.038;11.398;2023-04-06T07:05:50;0.00;;;0.00;;
70410;SDS011;57832;46.038;11.398;2023-04-06T07:08:22;0.00;;;0.00;;
70410;SDS011;57832;46.038;11.398;2023-04-06T07:10:51;0.00;;;0.00;;
70410;SDS011;57832;46.038;11.398;2023-04-06T07:13:21;0.00;;;0.00;;
70410;SDS011;57832;46.038;11.398;2023-04-06T07:15:51;0.00;;;0.00;;
70410;SDS011;57832;46.038;11.398;2023-04-06T07:18:17;0.00;;;0.00;;
70410;SDS011;57832;46.038;11.398;2023-04-06T07:20:44;0.00;;;0.00;;
70410;SDS011;57832;46.038;11.398;2023-04-06T07:23:10;0.00;;;0.00;;
70410;SDS011;57832;46.038;11.398;2023-04-06T07:25:36;0.00;;;0.00;;
70410;SDS011;57832;46.038;11.398;2023-04-06T07:28:02;0.00;;;0.00;;
70410;SDS011;57832;46.038;11.398;2023-04-06T07:30:28;0.00;;;0.00;;
70410;SDS011;57832;46.038;11.398;2023-04-06T07:32:54;0.00;;;0.00;;
70410;SDS011;57832;46.038;11.398;2023-04-06T07:35:21;0.00;;;0.00;;
70410;SDS011;57832;46.038;11.398;2023-04-06T07:37:48;0.00;;;0.00;;
70410;SDS011;57832;46.038;11.398;2023-04-06T07:40:14;0.00;;;0.00;;
70410;SDS011;57832;46.038;11.398;2023-04-06T07:42:40;0.00;;;0.00;;
70410;SDS011;57832;46.038;11.398;2023-04-06T07:45:06;0.00;;;0.00;;
70410;SDS011;57832;46.038;11.398;2023-04-06T07:47:32;0.00;;;0.00;;
70410;SDS011;57832;46.038;11.398;2023-04-06T07:49:58;0.00;;;0.00;;
70410;SDS011;57832;46.038;11.398;2023-04-06T07:52:23;0.00;;;0.00;;
70410;SDS011;57832;46.038;11.398;2023-04-06T07:54:49;0.00;;;0.00;;
70410;SDS011;57832;46.038;11.398;2023-04-06T07:57:15;0.00;;;0.00;;
70410;SDS011;57832;46.038;11.398;2023-04-06T07:59:40;0.00;;;0.00;;
70410;SDS011;57832;46.038;11.398;2023-04-06T08:02:06;0.00;;;0.00;;
70410;SDS011;57832;46.038;11.398;2023-04-06T08:04:31;0.00;;;0.00;;
70410;SDS011;57832;46.038;11.398;2023-04-06T08:06:57;0.00;;;0.00;;
70410;SDS011;57832;46.038;11.398;2023-04-06T08:09:22;0.00;;;0.00;;
70410;SDS011;57832;46.038;11.398;2023-04-06T08:11:48;0.00;;;0.00;;
70410;SDS011;57832;46.038;11.398;2023-04-06T08:14:14;0.00;;;0.00;;
70410;SDS011;57832;46.038;11.398;2023-04-06T08:19:06;0.00;;;0.00;;
70410;SDS011;57832;46.038;11.398;2023-04-06T08:21:34;0.00;;;0.00;;
70410;SDS011;57832;46.038;11.398;2023-04-06T08:24:00;0.00;;;0.00;;
70410;SDS011;57832;46.038;11.398;2023-04-06T08:26:26;0.00;;;0.00;;
70410;SDS011;57832;46.038;11.398;2023-04-06T08:28:52;0.00;;;0.00;;
70410;SDS011;57832;46.038;11.398;2023-04-06T08:31:17;0.00;;;0.00;;
70410;SDS011;57832;46.038;11.398;2023-04-06T08:33:43;0.00;;;0.00;;
70410;SDS011;57832;46.038;11.398;2023-04-06T08:36:09;0.00;;;0.00;;
70410;SDS011;57832;46.038;11.398;2023-04-06T08:38:36;0.00;;;0.00;;
70410;SDS011;57832;46.038;11.398;2023-04-06T08:41:06;0.00;;;0.00;;
70410;SDS011;57832;46.038;11.398;2023-04-06T08:43:41;0.00;;;0.00;;
70410;SDS011;57832;46.038;11.398;2023-04-06T08:46:09;0.00;;;0.00;;
70410;SDS011;57832;46.038;11.398;2023-04-06T08:48:36;0.00;;;0.00;;
70410;SDS011;57832;46.038;11.398;2023-04-06T08:51:04;0.00;;;0.00;;
70410;SDS011;57832;46.038;11.398;2023-04-06T08:53:30;0.00;;;0.00;;
70410;SDS011;57832;46.038;11.398;2023-04-06T08:55:56;0.00;;;0.00;;
70410;SDS011;57832;46.038;11.398;2023-04-06T08:58:24;0.00;;;0.00;;
70410;SDS011;57832;46.038;11.398;2023-04-06T09:00:51;0.00;;;0.00;;
70410;SDS011;57832;46.038;11.398;2023-04-06T09:05:44;0.00;;;0.00;;
70410;SDS011;57832;46.038;11.398;2023-04-06T09:08:11;0.00;;;0.00;;
70410;SDS011;57832;46.038;11.398;2023-04-06T09:10:40;0.00;;;0.00;;
70410;SDS011;57832;46.038;11.398;2023-04-06T09:13:06;0.00;;;0.00;;
70410;SDS011;57832;46.038;11.398;2023-04-06T09:15:33;0.00;;;0.00;;
70410;SDS011;57832;46.038;11.398;2023-04-06T09:17:59;0.00;;;0.00;;
70410;SDS011;57832;46.038;11.398;2023-04-06T09:20:25;0.00;;;0.00;;
70410;SDS011;57832;46.038;11.398;2023-04-06T09:22:53;0.00;;;0.00;;
70410;SDS011;57832;46.038;11.398;2023-04-06T09:25:23;0.00;;;0.00;;
70410;SDS011;57832;46.038;11.398;2023-04-06T09:27:58;0.00;;;0.00;;
70410;SDS011;57832;46.038;11.398;2023-04-06T09:30:25;0.00;;;0.00;;
70410;SDS011;57832;46.038;11.398;2023-04-06T09:35:18;0.00;;;0.00;;
70410;SDS011;57832;46.038;11.398;2023-04-06T09:37:45;0.00;;;0.00;;
70410;SDS011;57832;46.038;11.398;2023-04-06T09:40:13;0.00;;;0.00;;
70410;SDS011;57832;46.038;11.398;2023-04-06T09:45:08;0.00;;;0.00;;
70410;SDS011;57832;46.038;11.398;2023-04-06T09:47:35;0.00;;;0.00;;
70410;SDS011;57832;46.038;11.398;2023-04-06T09:50:02;0.00;;;0.00;;
70410;SDS011;57832;46.038;11.398;2023-04-06T09:52:46;0.00;;;0.00;;
70410;SDS011;57832;46.038;11.398;2023-04-06T09:55:30;0.00;;;0.00;;
70410;SDS011;57832;46.038;11.398;2023-04-06T09:58:09;0.00;;;0.00;;
70410;SDS011;57832;46.038;11.398;2023-04-06T10:01:20;0.00;;;0.00;;
70410;SDS011;57832;46.038;11.398;2023-04-06T10:03:49;0.00;;;0.00;;
70410;SDS011;57832;46.038;11.398;2023-04-06T10:06:21;0.00;;;0.00;;
70410;SDS011;57832;46.038;11.398;2023-04-06T10:08:50;0.00;;;0.00;;
70410;SDS011;57832;46.038;11.398;2023-04-06T10:11:19;0.00;;;0.00;;
70410;SDS011;57832;46.038;11.398;2023-04-06T10:13:45;0.00;;;0.00;;
70410;SDS011;57832;46.038;11.398;2023-04-06T10:16:13;0.00;;;0.00;;
70410;SDS011;57832;46.038;11.398;2023-04-06T10:18:40;0.00;;;0.00;;
70410;SDS011;57832;46.038;11.398;2023-04-06T10:21:12;0.00;;;0.00;;
70410;SDS011;57832;46.038;11.398;2023-04-06T10:23:54;0.00;;;0.00;;
70410;SDS011;57832;46.038;11.398;2023-04-06T10:26:26;0.00;;;0.00;;
70410;SDS011;57832;46.038;11.398;2023-04-06T10:28:51;0.00;;;0.00;;
70410;SDS011;57832;46.038;11.398;2023-04-06T10:31:28;0.00;;;0.00;;
70410;SDS011;57832;46.038;11.398;2023-04-06T10:33:56;0.10;;;0.10;;
70410;SDS011;57832;46.038;11.398;2023-04-06T10:36:28;0.00;;;0.00;;
70410;SDS011;57832;46.038;11.398;2023-04-06T10:38:58;0.00;;;0.00;;
70410;SDS011;57832;46.038;11.398;2023-04-06T10:41:31;0.10;;;0.10;;
70410;SDS011;57832;46.038;11.398;2023-04-06T10:43:58;0.10;;;0.10;;
70410;SDS011;57832;46.038;11.398;2023-04-06T10:46:27;0.05;;;0.05;;
70410;SDS011;57832;46.038;11.398;2023-04-06T10:48:58;0.10;;;0.10;;
70410;SDS011;57832;46.038;11.398;2023-04-06T10:51:38;0.00;;;0.00;;
70410;SDS011;57832;46.038;11.398;2023-04-06T10:54:05;0.00;;;0.00;;
70410;SDS011;57832;46.038;11.398;2023-04-06T10:56:32;0.08;;;0.08;;
70410;SDS011;57832;46.038;11.398;2023-04-06T10:59:02;0.10;;;0.10;;
70410;SDS011;57832;46.038;11.398;2023-04-06T11:01:28;0.10;;;0.10;;
70410;SDS011;57832;46.038;11.398;2023-04-06T11:03:55;0.10;;;0.10;;
70410;SDS011;57832;46.038;11.398;2023-04-06T11:06:28;0.10;;;0.10;;
70410;SDS011;57832;46.038;11.398;2023-04-06T11:08:56;0.10;;;0.10;;
70410;SDS011;57832;46.038;11.398;2023-04-06T11:11:23;0.10;;;0.10;;
70410;SDS011;57832;46.038;11.398;2023-04-06T11:13:58;0.10;;;0.10;;
70410;SDS011;57832;46.038;11.398;2023-04-06T11:16:28;0.17;;;0.17;;
70410;SDS011;57832;46.038;11.398;2023-04-06T11:18:56;0.10;;;0.10;;
70410;SDS011;57832;46.038;11.398;2023-04-06T11:21:37;0.10;;;0.10;;
70410;SDS011;57832;46.038;11.398;2023-04-06T11:24:14;0.10;;;0.10;;
70410;SDS011;57832;46.038;11.398;2023-04-06T11:26:48;0.10;;;0.10;;
70410;SDS011;57832;46.038;11.398;2023-04-06T11:29:23;0.10;;;0.10;;
70410;SDS011;57832;46.038;11.398;2023-04-06T11:31:59;0.10;;;0.10;;
70410;SDS011;57832;46.038;11.398;2023-04-06T11:34:29;0.10;;;0.10;;
70410;SDS011;57832;46.038;11.398;2023-04-06T11:37:01;0.10;;;0.10;;
70410;SDS011;57832;46.038;11.398;2023-04-06T11:39:30;0.10;;;0.10;;
70410;SDS011;57832;46.038;11.398;2023-04-06T11:42:00;0.10;;;0.10;;
70410;SDS011;57832;46.038;11.398;2023-04-06T11:44:33;0.10;;;0.10;;
70410;SDS011;57832;46.038;11.398;2023-04-06T11:47:07;0.10;;;0.10;;
70410;SDS011;57832;46.038;11.398;2023-04-06T11:49:36;0.10;;;0.10;;
70410;SDS011;57832;46.038;11.398;2023-04-06T11:52:03;0.10;;;0.10;;
70410;SDS011;57832;46.038;11.398;2023-04-06T11:54:40;0.10;;;0.10;;
70410;SDS011;57832;46.038;11.398;2023-04-06T11:57:07;0.20;;;0.20;;
70410;SDS011;57832;46.038;11.398;2023-04-06T11:59:33;0.10;;;0.10;;
70410;SDS011;57832;46.038;11.398;2023-04-06T12:02:01;0.20;;;0.20;;
70410;SDS011;57832;46.038;11.398;2023-04-06T12:04:27;0.10;;;0.10;;
70410;SDS011;57832;46.038;11.398;2023-04-06T12:06:52;0.10;;;0.10;;
70410;SDS011;57832;46.038;11.398;2023-04-06T12:09:18;0.20;;;0.20;;
70410;SDS011;57832;46.038;11.398;2023-04-06T12:11:44;0.20;;;0.20;;
70410;SDS011;57832;46.038;11.398;2023-04-06T12:14:10;0.20;;;0.20;;
70410;SDS011;57832;46.038;11.398;2023-04-06T12:16:36;0.20;;;0.20;;
70410;SDS011;57832;46.038;11.398;2023-04-06T12:19:01;0.10;;;0.10;;
70410;SDS011;57832;46.038;11.398;2023-04-06T12:21:27;0.20;;;0.20;;
70410;SDS011;57832;46.038;11.398;2023-04-06T12:23:56;0.20;;;0.20;;
70410;SDS011;57832;46.038;11.398;2023-04-06T12:26:22;0.20;;;0.20;;
70410;SDS011;57832;46.038;11.398;2023-04-06T12:28:47;0.25;;;0.25;;
70410;SDS011;57832;46.038;11.398;2023-04-06T12:31:16;0.20;;;0.20;;
70410;SDS011;57832;46.038;11.398;2023-04-06T12:33:42;0.20;;;0.20;;
70410;SDS011;57832;46.038;11.398;2023-04-06T12:36:14;0.20;;;0.20;;
70410;SDS011;57832;46.038;11.398;2023-04-06T12:38:41;0.20;;;0.20;;
70410;SDS011;57832;46.038;11.398;2023-04-06T12:41:07;0.20;;;0.20;;
70410;SDS011;57832;46.038;11.398;2023-04-06T12:43:33;0.20;;;0.20;;
70410;SDS011;57832;46.038;11.398;2023-04-06T12:46:00;0.20;;;0.20;;
70410;SDS011;57832;46.038;11.398;2023-04-06T12:48:26;0.20;;;0.20;;
70410;SDS011;57832;46.038;11.398;2023-04-06T12:50:58;0.20;;;0.20;;
70410;SDS011;57832;46.038;11.398;2023-04-06T12:53:25;0.20;;;0.20;;
70410;SDS011;57832;46.038;11.398;2023-04-06T12:55:54;0.10;;;0.10;;
70410;SDS011;57832;46.038;11.398;2023-04-06T12:58:20;0.20;;;0.20;;
70410;SDS011;57832;46.038;11.398;2023-04-06T13:00:47;0.10;;;0.10;;
70410;SDS011;57832;46.038;11.398;2023-04-06T13:03:13;0.20;;;0.20;;
70410;SDS011;57832;46.038;11.398;2023-04-06T13:05:51;0.20;;;0.20;;
70410;SDS011;57832;46.038;11.398;2023-04-06T13:08:19;0.20;;;0.20;;
70410;SDS011;57832;46.038;11.398;2023-04-06T13:10:49;0.20;;;0.20;;
70410;SDS011;57832;46.038;11.398;2023-04-06T13:13:23;0.13;;;0.13;;
70410;SDS011;57832;46.038;11.398;2023-04-06T13:15:53;0.20;;;0.20;;
70410;SDS011;57832;46.038;11.398;2023-04-06T13:18:20;0.10;;;0.10;;
70410;SDS011;57832;46.038;11.398;2023-04-06T13:20:46;0.10;;;0.10;;
70410;SDS011;57832;46.038;11.398;2023-04-06T13:23:13;0.10;;;0.10;;
70410;SDS011;57832;46.038;11.398;2023-04-06T13:25:38;0.10;;;0.10;;
70410;SDS011;57832;46.038;11.398;2023-04-06T13:28:04;0.20;;;0.20;;
70410;SDS011;57832;46.038;11.398;2023-04-06T13:30:30;0.20;;;0.20;;
70410;SDS011;57832;46.038;11.398;2023-04-06T13:32:57;0.13;;;0.13;;
70410;SDS011;57832;46.038;11.398;2023-04-06T13:35:22;0.20;;;0.20;;
70410;SDS011;57832;46.038;11.398;2023-04-06T13:37:48;0.15;;;0.15;;
70410;SDS011;57832;46.038;11.398;2023-04-06T13:40:16;0.10;;;0.10;;
70410;SDS011;57832;46.038;11.398;2023-04-06T13:42:42;0.10;;;0.10;;
70410;SDS011;57832;46.038;11.398;2023-04-06T13:45:10;0.10;;;0.10;;
70410;SDS011;57832;46.038;11.398;2023-04-06T13:47:35;0.10;;;0.10;;
70410;SDS011;57832;46.038;11.398;2023-04-06T13:50:01;0.10;;;0.10;;
70410;SDS011;57832;46.038;11.398;2023-04-06T13:52:28;0.10;;;0.10;;
70410;SDS011;57832;46.038;11.398;2023-04-06T13:54:54;0.00;;;0.00;;
70410;SDS011;57832;46.038;11.398;2023-04-06T13:57:20;0.10;;;0.10;;
70410;SDS011;57832;46.038;11.398;2023-04-06T13:59:45;0.10;;;0.10;;
70410;SDS011;57832;46.038;11.398;2023-04-06T14:04:36;0.00;;;0.00;;
70410;SDS011;57832;46.038;11.398;2023-04-06T14:07:03;0.00;;;0.00;;
70410;SDS011;57832;46.038;11.398;2023-04-06T14:09:32;0.00;;;0.00;;
70410;SDS011;57832;46.038;11.398;2023-04-06T14:11:58;0.00;;;0.00;;
70410;SDS011;57832;46.038;11.398;2023-04-06T14:14:23;0.05;;;0.05;;
70410;SDS011;57832;46.038;11.398;2023-04-06T14:16:49;0.00;;;0.00;;
70410;SDS011;57832;46.038;11.398;2023-04-06T14:19:15;0.00;;;0.00;;
70410;SDS011;57832;46.038;11.398;2023-04-06T14:21:45;0.00;;;0.00;;
70410;SDS011;57832;46.038;11.398;2023-04-06T14:24:11;0.00;;;0.00;;
70410;SDS011;57832;46.038;11.398;2023-04-06T14:26:39;0.00;;;0.00;;
70410;SDS011;57832;46.038;11.398;2023-04-06T14:29:06;0.00;;;0.00;;
70410;SDS011;57832;46.038;11.398;2023-04-06T14:31:33;0.00;;;0.00;;
70410;SDS011;57832;46.038;11.398;2023-04-06T14:34:00;0.00;;;0.00;;
70410;SDS011;57832;46.038;11.398;2023-04-06T14:36:27;0.00;;;0.00;;
70410;SDS011;57832;46.038;11.398;2023-04-06T14:38:54;0.00;;;0.00;;
70410;SDS011;57832;46.038;11.398;2023-04-06T14:41:22;0.00;;;0.00;;
70410;SDS011;57832;46.038;11.398;2023-04-06T14:43:49;0.00;;;0.00;;
70410;SDS011;57832;46.038;11.398;2023-04-06T14:46:17;0.00;;;0.00;;
70410;SDS011;57832;46.038;11.398;2023-04-06T14:48:43;0.00;;;0.00;;
70410;SDS011;57832;46.038;11.398;2023-04-06T14:51:10;0.00;;;0.00;;
70410;SDS011;57832;46.038;11.398;2023-04-06T14:53:36;0.00;;;0.00;;
70410;SDS011;57832;46.038;11.398;2023-04-06T14:56:02;0.00;;;0.00;;
70410;SDS011;57832;46.038;11.398;2023-04-06T14:58:28;0.00;;;0.00;;
70410;SDS011;57832;46.038;11.398;2023-04-06T15:00:58;0.00;;;0.00;;
70410;SDS011;57832;46.038;11.398;2023-04-06T15:03:25;0.00;;;0.00;;
70410;SDS011;57832;46.038;11.398;2023-04-06T15:08:20;0.00;;;0.00;;
70410;SDS011;57832;46.038;11.398;2023-04-06T15:10:47;0.00;;;0.00;;
70410;SDS011;57832;46.038;11.398;2023-04-06T15:13:13;0.00;;;0.00;;
70410;SDS011;57832;46.038;11.398;2023-04-06T15:15:40;0.00;;;0.00;;
70410;SDS011;57832;46.038;11.398;2023-04-06T15:18:06;0.00;;;0.00;;
70410;SDS011;57832;46.038;11.398;2023-04-06T15:20:31;0.00;;;0.00;;
70410;SDS011;57832;46.038;11.398;2023-04-06T15:22:57;0.00;;;0.00;;
70410;SDS011;57832;46.038;11.398;2023-04-06T15:25:24;0.00;;;0.00;;
70410;SDS011;57832;46.038;11.398;2023-04-06T15:27:53;0.00;;;0.00;;
70410;SDS011;57832;46.038;11.398;2023-04-06T15:30:19;0.00;;;0.00;;
70410;SDS011;57832;46.038;11.398;2023-04-06T15:32:57;0.00;;;0.00;;
70410;SDS011;57832;46.038;11.398;2023-04-06T15:35:28;0.00;;;0.00;;
70410;SDS011;57832;46.038;11.398;2023-04-06T15:37:57;0.00;;;0.00;;
70410;SDS011;57832;46.038;11.398;2023-04-06T15:40:25;0.00;;;0.00;;
70410;SDS011;57832;46.038;11.398;2023-04-06T15:42:51;0.00;;;0.00;;
70410;SDS011;57832;46.038;11.398;2023-04-06T15:45:16;0.00;;;0.00;;
70410;SDS011;57832;46.038;11.398;2023-04-06T15:47:43;0.00;;;0.00;;
70410;SDS011;57832;46.038;11.398;2023-04-06T15:50:10;0.00;;;0.00;;
70410;SDS011;57832;46.038;11.398;2023-04-06T15:52:36;0.00;;;0.00;;
70410;SDS011;57832;46.038;11.398;2023-04-06T15:55:03;0.00;;;0.00;;
70410;SDS011;57832;46.038;11.398;2023-04-06T15:57:31;0.00;;;0.00;;
70410;SDS011;57832;46.038;11.398;2023-04-06T15:59:58;0.00;;;0.00;;
70410;SDS011;57832;46.038;11.398;2023-04-06T16:02:23;0.00;;;0.00;;
70410;SDS011;57832;46.038;11.398;2023-04-06T16:04:55;0.00;;;0.00;;
70410;SDS011;57832;46.038;11.398;2023-04-06T16:07:22;0.00;;;0.00;;
70410;SDS011;57832;46.038;11.398;2023-04-06T16:09:51;0.00;;;0.00;;
70410;SDS011;57832;46.038;11.398;2023-04-06T16:12:17;0.00;;;0.00;;
70410;SDS011;57832;46.038;11.398;2023-04-06T16:14:43;0.00;;;0.00;;
70410;SDS011;57832;46.038;11.398;2023-04-06T16:17:09;0.00;;;0.00;;
70410;SDS011;57832;46.038;11.398;2023-04-06T16:19:34;0.00;;;0.00;;
70410;SDS011;57832;46.038;11.398;2023-04-06T16:22:00;0.00;;;0.00;;
70410;SDS011;57832;46.038;11.398;2023-04-06T16:24:25;0.00;;;0.00;;
70410;SDS011;57832;46.038;11.398;2023-04-06T16:26:51;0.00;;;0.00;;
70410;SDS011;57832;46.038;11.398;2023-04-06T16:29:16;0.00;;;0.00;;
70410;SDS011;57832;46.038;11.398;2023-04-06T16:31:42;0.00;;;0.00;;
70410;SDS011;57832;46.038;11.398;2023-04-06T16:34:11;0.00;;;0.00;;
70410;SDS011;57832;46.038;11.398;2023-04-06T16:36:37;0.00;;;0.00;;
70410;SDS011;57832;46.038;11.398;2023-04-06T16:39:05;0.00;;;0.00;;
70410;SDS011;57832;46.038;11.398;2023-04-06T16:41:31;0.00;;;0.00;;
70410;SDS011;57832;46.038;11.398;2023-04-06T16:43:57;0.00;;;0.00;;
70410;SDS011;57832;46.038;11.398;2023-04-06T16:46:29;0.00;;;0.00;;
70410;SDS011;57832;46.038;11.398;2023-04-06T16:48:56;0.00;;;0.00;;
70410;SDS011;57832;46.038;11.398;2023-04-06T16:51:22;0.00;;;0.00;;
70410;SDS011;57832;46.038;11.398;2023-04-06T16:53:47;0.00;;;0.00;;
70410;SDS011;57832;46.038;11.398;2023-04-06T16:56:13;0.00;;;0.00;;
70410;SDS011;57832;46.038;11.398;2023-04-06T16:58:38;0.00;;;0.00;;
70410;SDS011;57832;46.038;11.398;2023-04-06T17:01:04;0.00;;;0.00;;
70410;SDS011;57832;46.038;11.398;2023-04-06T17:03:31;0.00;;;0.00;;
70410;SDS011;57832;46.038;11.398;2023-04-06T17:05:58;0.00;;;0.00;;
70410;SDS011;57832;46.038;11.398;2023-04-06T17:08:23;0.00;;;0.00;;
70410;SDS011;57832;46.038;11.398;2023-04-06T17:10:49;0.00;;;0.00;;
70410;SDS011;57832;46.038;11.398;2023-04-06T17:13:15;0.00;;;0.00;;
70410;SDS011;57832;46.038;11.398;2023-04-06T17:15:40;0.00;;;0.00;;
70410;SDS011;57832;46.038;11.398;2023-04-06T17:18:07;0.00;;;0.00;;
70410;SDS011;57832;46.038;11.398;2023-04-06T17:20:33;0.00;;;0.00;;
70410;SDS011;57832;46.038;11.398;2023-04-06T17:23:00;0.00;;;0.00;;
70410;SDS011;57832;46.038;11.398;2023-04-06T17:25:26;0.00;;;0.00;;
70410;SDS011;57832;46.038;11.398;2023-04-06T17:27:52;0.00;;;0.00;;
70410;SDS011;57832;46.038;11.398;2023-04-06T17:30:17;0.00;;;0.00;;
70410;SDS011;57832;46.038;11.398;2023-04-06T17:32:43;0.00;;;0.00;;
70410;SDS011;57832;46.038;11.398;2023-04-06T17:35:09;0.00;;;0.00;;
70410;SDS011;57832;46.038;11.398;2023-04-06T17:37:35;0.00;;;0.00;;
70410;SDS011;57832;46.038;11.398;2023-04-06T17:40:02;0.00;;;0.00;;
70410;SDS011;57832;46.038;11.398;2023-04-06T17:42:29;0.00;;;0.00;;
70410;SDS011;57832;46.038;11.398;2023-04-06T17:44:56;0.00;;;0.00;;
70410;SDS011;57832;46.038;11.398;2023-04-06T17:47:23;0.00;;;0.00;;
70410;SDS011;57832;46.038;11.398;2023-04-06T17:49:54;0.00;;;0.00;;
70410;SDS011;57832;46.038;11.398;2023-04-06T17:52:20;0.00;;;0.00;;
70410;SDS011;57832;46.038;11.398;2023-04-06T17:54:45;0.00;;;0.00;;
70410;SDS011;57832;46.038;11.398;2023-04-06T17:57:11;0.00;;;0.00;;
70410;SDS011;57832;46.038;11.398;2023-04-06T17:59:36;0.00;;;0.00;;
70410;SDS011;57832;46.038;11.398;2023-04-06T18:02:02;0.00;;;0.00;;
70410;SDS011;57832;46.038;11.398;2023-04-06T18:04:28;0.00;;;0.00;;
70410;SDS011;57832;46.038;11.398;2023-04-06T18:06:53;0.00;;;0.00;;
70410;SDS011;57832;46.038;11.398;2023-04-06T18:09:19;0.00;;;0.00;;
70410;SDS011;57832;46.038;11.398;2023-04-06T18:11:45;0.00;;;0.00;;
70410;SDS011;57832;46.038;11.398;2023-04-06T18:14:10;0.00;;;0.00;;
70410;SDS011;57832;46.038;11.398;2023-04-06T18:16:37;0.00;;;0.00;;
70410;SDS011;57832;46.038;11.398;2023-04-06T18:19:04;0.00;;;0.00;;
70410;SDS011;57832;46.038;11.398;2023-04-06T18:21:30;0.00;;;0.00;;
70410;SDS011;57832;46.038;11.398;2023-04-06T18:23:56;0.00;;;0.00;;
70410;SDS011;57832;46.038;11.398;2023-04-06T18:26:22;0.00;;;0.00;;
70410;SDS011;57832;46.038;11.398;2023-04-06T18:28:51;0.00;;;0.00;;
70410;SDS011;57832;46.038;11.398;2023-04-06T18:31:16;0.00;;;0.00;;
70410;SDS011;57832;46.038;11.398;2023-04-06T18:33:43;0.00;;;0.00;;
70410;SDS011;57832;46.038;11.398;2023-04-06T18:36:09;0.00;;;0.00;;
70410;SDS011;57832;46.038;11.398;2023-04-06T18:38:36;0.00;;;0.00;;
70410;SDS011;57832;46.038;11.398;2023-04-06T18:41:06;0.00;;;0.00;;
70410;SDS011;57832;46.038;11.398;2023-04-06T18:43:31;0.00;;;0.00;;
70410;SDS011;57832;46.038;11.398;2023-04-06T18:45:57;0.00;;;0.00;;
70410;SDS011;57832;46.038;11.398;2023-04-06T18:48:24;0.00;;;0.00;;
70410;SDS011;57832;46.038;11.398;2023-04-06T18:50:50;0.00;;;0.00;;
70410;SDS011;57832;46.038;11.398;2023-04-06T18:53:16;0.00;;;0.00;;
70410;SDS011;57832;46.038;11.398;2023-04-06T18:55:42;0.00;;;0.00;;
70410;SDS011;57832;46.038;11.398;2023-04-06T18:58:09;0.00;;;0.00;;
70410;SDS011;57832;46.038;11.398;2023-04-06T19:00:34;0.00;;;0.00;;
70410;SDS011;57832;46.038;11.398;2023-04-06T19:03:00;0.00;;;0.00;;
70410;SDS011;57832;46.038;11.398;2023-04-06T19:05:26;0.00;;;0.00;;
70410;SDS011;57832;46.038;11.398;2023-04-06T19:07:51;0.00;;;0.00;;
70410;SDS011;57832;46.038;11.398;2023-04-06T19:10:17;0.00;;;0.00;;
70410;SDS011;57832;46.038;11.398;2023-04-06T19:12:43;0.00;;;0.00;;
70410;SDS011;57832;46.038;11.398;2023-04-06T19:15:09;0.00;;;0.00;;
70410;SDS011;57832;46.038;11.398;2023-04-06T19:17:35;0.00;;;0.00;;
70410;SDS011;57832;46.038;11.398;2023-04-06T19:20:02;0.00;;;0.00;;
70410;SDS011;57832;46.038;11.398;2023-04-06T19:22:27;0.00;;;0.00;;
70410;SDS011;57832;46.038;11.398;2023-04-06T19:24:53;0.00;;;0.00;;
70410;SDS011;57832;46.038;11.398;2023-04-06T19:27:18;0.00;;;0.00;;
70410;SDS011;57832;46.038;11.398;2023-04-06T19:29:44;0.00;;;0.00;;
70410;SDS011;57832;46.038;11.398;2023-04-06T19:32:09;0.00;;;0.00;;
70410;SDS011;57832;46.038;11.398;2023-04-06T19:34:36;0.00;;;0.00;;
70410;SDS011;57832;46.038;11.398;2023-04-06T19:39:28;0.00;;;0.00;;
70410;SDS011;57832;46.038;11.398;2023-04-06T19:41:54;0.00;;;0.00;;
70410;SDS011;57832;46.038;11.398;2023-04-06T19:44:20;0.00;;;0.00;;
70410;SDS011;57832;46.038;11.398;2023-04-06T19:46:46;0.00;;;0.00;;
70410;SDS011;57832;46.038;11.398;2023-04-06T19:49:12;0.00;;;0.00;;
70410;SDS011;57832;46.038;11.398;2023-04-06T19:51:38;0.00;;;0.00;;
70410;SDS011;57832;46.038;11.398;2023-04-06T19:54:04;0.00;;;0.00;;
70410;SDS011;57832;46.038;11.398;2023-04-06T19:56:30;0.00;;;0.00;;
70410;SDS011;57832;46.038;11.398;2023-04-06T19:58:57;0.00;;;0.00;;
70410;SDS011;57832;46.038;11.398;2023-04-06T20:01:23;0.00;;;0.00;;
70410;SDS011;57832;46.038;11.398;2023-04-06T20:03:48;0.00;;;0.00;;
70410;SDS011;57832;46.038;11.398;2023-04-06T20:06:14;0.00;;;0.00;;
70410;SDS011;57832;46.038;11.398;2023-04-06T20:08:41;0.00;;;0.00;;
70410;SDS011;57832;46.038;11.398;2023-04-06T20:11:06;0.00;;;0.00;;